createdAt,value
2017-01-07T00:00:26.006Z,0
2017-01-07T00:01:26.406Z,0
2017-01-07T00:02:26.806Z,0
2017-01-07T00:03:26.398Z,0
2017-01-07T00:04:26.798Z,0
2017-01-07T00:05:26.386Z,0
2017-01-07T00:06:26.379Z,0
2017-01-07T00:07:25.970Z,0
2017-01-07T00:08:26.774Z,0
2017-01-07T00:09:25.958Z,0
2017-01-07T00:10:26.359Z,0
2017-01-07T00:11:26.762Z,0
2017-01-07T00:12:25.934Z,0
2017-01-07T00:13:25.923Z,0
2017-01-07T00:14:25.934Z,0
2017-01-07T00:15:26.338Z,0
2017-01-07T00:16:26.323Z,0
2017-01-07T00:17:25.503Z,0
2017-01-07T00:18:26.318Z,0
2017-01-07T00:19:25.898Z,0
2017-01-07T00:20:27.463Z,0
2017-01-07T00:21:26.287Z,0
2017-01-07T00:22:25.475Z,0
2017-01-07T00:23:25.459Z,0
2017-01-07T00:24:26.282Z,0
2017-01-07T00:25:25.855Z,0
2017-01-07T00:26:26.678Z,0
2017-01-07T00:27:26.255Z,0
2017-01-07T00:28:25.843Z,0
2017-01-07T00:29:25.843Z,0
2017-01-07T00:30:26.659Z,0
2017-01-07T00:31:25.424Z,0
2017-01-07T00:32:25.819Z,0
2017-01-07T00:33:26.231Z,0
2017-01-07T00:34:25.815Z,0
2017-01-07T00:35:26.635Z,0
2017-01-07T00:36:25.799Z,0
2017-01-07T00:37:25.815Z,0
2017-01-07T00:38:25.787Z,0
2017-01-07T00:39:26.199Z,0
2017-01-07T00:40:25.771Z,0
2017-01-07T00:41:26.191Z,0
2017-01-07T00:42:26.896Z,0
2017-01-07T00:43:25.347Z,0
2017-01-07T00:44:26.167Z,0
2017-01-07T00:45:25.763Z,0
2017-01-07T00:46:26.187Z,0
2017-01-07T00:47:26.330Z,0
2017-01-07T00:48:25.731Z,0
2017-01-07T00:49:26.550Z,0
2017-01-07T00:50:25.730Z,0
2017-01-07T00:51:26.130Z,0
2017-01-07T00:52:25.718Z,0
2017-01-07T00:53:25.950Z,0
2017-01-07T00:54:25.730Z,0
2017-01-07T00:55:25.702Z,0
2017-01-07T00:56:26.541Z,0
2017-01-07T00:57:26.501Z,0
2017-01-07T00:58:25.838Z,0
2017-01-07T00:59:26.089Z,0
2017-01-07T01:00:26.085Z,0
2017-01-07T01:01:26.485Z,0
2017-01-07T01:02:26.061Z,0
2017-01-07T01:03:25.349Z,0
2017-01-07T01:04:26.057Z,0
2017-01-07T01:05:25.649Z,0
2017-01-07T01:06:26.046Z,0
2017-01-07T01:07:26.037Z,0
2017-01-07T01:08:25.776Z,0
2017-01-07T01:09:26.021Z,0
2017-01-07T01:10:25.621Z,0
2017-01-07T01:11:25.205Z,0
2017-01-07T01:12:26.009Z,0
2017-01-07T01:13:25.333Z,0
2017-01-07T01:14:26.412Z,0
2017-01-07T01:15:25.997Z,0
2017-01-07T01:16:25.576Z,0
2017-01-07T01:17:25.976Z,0
2017-01-07T01:18:25.565Z,0
2017-01-07T01:19:25.160Z,0
2017-01-07T01:20:25.953Z,0
2017-01-07T01:21:25.968Z,0
2017-01-07T01:22:25.953Z,0
2017-01-07T01:23:26.360Z,0
2017-01-07T01:24:26.344Z,0
2017-01-07T01:25:25.940Z,0
2017-01-07T01:26:25.512Z,0
2017-01-07T01:27:25.924Z,0
2017-01-07T01:28:25.920Z,0
2017-01-07T01:29:25.508Z,0
2017-01-07T01:30:25.501Z,0
2017-01-07T01:31:25.488Z,0
2017-01-07T01:32:25.484Z,0
2017-01-07T01:33:25.488Z,0
2017-01-07T01:34:25.900Z,0
2017-01-07T01:35:25.076Z,0
2017-01-07T01:36:25.872Z,0
2017-01-07T01:37:25.879Z,0
2017-01-07T01:38:25.868Z,0
2017-01-07T01:39:25.856Z,0
2017-01-07T01:40:25.843Z,0
2017-01-07T01:41:25.855Z,0
2017-01-07T01:42:25.427Z,0
2017-01-07T01:43:25.851Z,0
2017-01-07T01:44:25.419Z,0
2017-01-07T01:45:25.831Z,0
2017-01-07T01:46:26.239Z,0
2017-01-07T01:47:25.811Z,0
2017-01-07T01:48:25.391Z,0
2017-01-07T01:49:25.811Z,0
2017-01-07T01:50:25.799Z,0
2017-01-07T01:51:25.379Z,0
2017-01-07T01:52:24.967Z,0
2017-01-07T01:53:25.770Z,0
2017-01-07T01:54:26.186Z,0
2017-01-07T01:55:25.367Z,0
2017-01-07T01:56:25.371Z,0
2017-01-07T01:57:25.794Z,0
2017-01-07T01:58:25.747Z,0
2017-01-07T01:59:25.339Z,0
2017-01-07T02:00:25.743Z,0
2017-01-07T02:01:24.916Z,0
2017-01-07T02:02:25.739Z,0
2017-01-07T02:03:24.903Z,0
2017-01-07T02:04:26.130Z,0
2017-01-07T02:05:24.883Z,0
2017-01-07T02:06:25.711Z,0
2017-01-07T02:07:24.879Z,0
2017-01-07T02:08:25.703Z,0
2017-01-07T02:09:25.279Z,0
2017-01-07T02:10:25.679Z,0
2017-01-07T02:11:25.275Z,0
2017-01-07T02:12:25.687Z,0
2017-01-07T02:13:25.671Z,0
2017-01-07T02:14:25.675Z,0
2017-01-07T02:15:24.839Z,0
2017-01-07T02:16:25.659Z,0
2017-01-07T02:17:25.655Z,0
2017-01-07T02:18:24.819Z,0
2017-01-07T02:19:24.807Z,0
2017-01-07T02:20:25.211Z,0
2017-01-07T02:21:26.035Z,0
2017-01-07T02:22:25.211Z,0
2017-01-07T02:23:25.215Z,0
2017-01-07T02:24:25.195Z,0
2017-01-07T02:25:25.187Z,0
2017-01-07T02:26:25.601Z,0
2017-01-07T02:27:25.595Z,0
2017-01-07T02:28:25.995Z,0
2017-01-07T02:29:25.587Z,0
2017-01-07T02:30:25.987Z,0
2017-01-07T02:31:25.991Z,0
2017-01-07T02:32:25.163Z,0
2017-01-07T02:33:24.735Z,0
2017-01-07T02:34:25.555Z,0
2017-01-07T02:35:25.143Z,0
2017-01-07T02:36:25.159Z,0
2017-01-07T02:37:25.123Z,0
2017-01-07T02:38:25.119Z,0
2017-01-07T02:39:25.528Z,0
2017-01-07T02:40:25.935Z,0
2017-01-07T02:41:25.107Z,0
2017-01-07T02:42:25.927Z,0
2017-01-07T02:43:25.495Z,0
2017-01-07T02:44:25.499Z,0
2017-01-07T02:45:24.675Z,0
2017-01-07T02:46:25.079Z,0
2017-01-07T02:47:25.071Z,0
2017-01-07T02:48:25.067Z,0
2017-01-07T02:49:25.871Z,0
2017-01-07T02:50:25.206Z,0
2017-01-07T02:51:25.046Z,0
2017-01-07T02:52:25.871Z,0
2017-01-07T02:53:25.451Z,0
2017-01-07T02:54:25.031Z,0
2017-01-07T02:55:25.027Z,0
2017-01-07T02:56:25.434Z,0
2017-01-07T02:57:25.438Z,0
2017-01-07T02:58:25.414Z,0
2017-01-07T02:59:24.195Z,0
2017-01-07T03:00:25.411Z,0
2017-01-07T03:01:24.586Z,0
2017-01-07T03:02:25.802Z,0
2017-01-07T03:03:24.982Z,0
2017-01-07T03:04:25.388Z,0
2017-01-07T03:05:25.387Z,0
2017-01-07T03:06:24.967Z,0
2017-01-07T03:07:25.367Z,0
2017-01-07T03:08:24.959Z,0
2017-01-07T03:09:24.947Z,0
2017-01-07T03:10:24.951Z,0
2017-01-07T03:11:25.347Z,0
2017-01-07T03:12:25.339Z,0
2017-01-07T03:13:24.527Z,0
2017-01-07T03:14:25.331Z,0
2017-01-07T03:15:24.923Z,0
2017-01-07T03:16:25.324Z,0
2017-01-07T03:17:24.912Z,0
2017-01-07T03:18:24.903Z,0
2017-01-07T03:19:24.896Z,0
2017-01-07T03:20:24.891Z,0
2017-01-07T03:21:25.304Z,0
2017-01-07T03:22:25.296Z,0
2017-01-07T03:23:24.876Z,0
2017-01-07T03:24:24.456Z,0
2017-01-07T03:25:25.272Z,0
2017-01-07T03:26:24.468Z,0
2017-01-07T03:27:24.856Z,0
2017-01-07T03:28:25.260Z,0
2017-01-07T03:29:25.260Z,0
2017-01-07T03:30:25.240Z,0
2017-01-07T03:31:24.428Z,0
2017-01-07T03:32:25.232Z,0
2017-01-07T03:33:25.224Z,0
2017-01-07T03:34:24.820Z,0
2017-01-07T03:35:24.812Z,0
2017-01-07T03:36:25.213Z,0
2017-01-07T03:37:25.212Z,0
2017-01-07T03:38:25.196Z,0
2017-01-07T03:39:24.793Z,0
2017-01-07T03:40:24.785Z,0
2017-01-07T03:41:25.185Z,0
2017-01-07T03:42:24.769Z,0
2017-01-07T03:43:24.773Z,0
2017-01-07T03:44:25.173Z,0
2017-01-07T03:45:25.582Z,0
2017-01-07T03:46:24.750Z,0
2017-01-07T03:47:25.158Z,0
2017-01-07T03:48:25.150Z,0
2017-01-07T03:49:25.146Z,0
2017-01-07T03:50:25.554Z,0
2017-01-07T03:51:25.139Z,0
2017-01-07T03:52:24.723Z,0
2017-01-07T03:53:25.127Z,0
2017-01-07T03:54:24.723Z,0
2017-01-07T03:55:24.711Z,0
2017-01-07T03:56:24.703Z,0
2017-01-07T03:57:25.099Z,0
2017-01-07T03:58:24.691Z,0
2017-01-07T03:59:25.099Z,0
2017-01-07T04:00:24.684Z,0
2017-01-07T04:01:24.672Z,0
2017-01-07T04:02:25.072Z,0
2017-01-07T04:03:24.677Z,0
2017-01-07T04:04:25.060Z,0
2017-01-07T04:05:24.649Z,0
2017-01-07T04:06:25.059Z,0
2017-01-07T04:07:24.641Z,0
2017-01-07T04:08:25.045Z,0
2017-01-07T04:09:24.657Z,0
2017-01-07T04:10:24.633Z,0
2017-01-07T04:11:24.617Z,0
2017-01-07T04:12:25.437Z,0
2017-01-07T04:13:25.018Z,0
2017-01-07T04:14:25.005Z,0
2017-01-07T04:15:25.022Z,0
2017-01-07T04:16:25.002Z,0
2017-01-07T04:17:24.585Z,0
2017-01-07T04:18:24.586Z,0
2017-01-07T04:19:24.990Z,0
2017-01-07T04:20:24.986Z,0
2017-01-07T04:21:24.982Z,0
2017-01-07T04:22:25.379Z,0
2017-01-07T04:23:24.146Z,0
2017-01-07T04:24:24.975Z,0
2017-01-07T04:25:24.957Z,0
2017-01-07T04:26:24.979Z,0
2017-01-07T04:27:24.535Z,0
2017-01-07T04:28:24.527Z,0
2017-01-07T04:29:24.927Z,0
2017-01-07T04:30:24.507Z,0
2017-01-07T04:31:24.512Z,0
2017-01-07T04:32:24.912Z,0
2017-01-07T04:33:24.908Z,0
2017-01-07T04:34:24.513Z,0
2017-01-07T04:35:25.320Z,0
2017-01-07T04:36:24.500Z,0
2017-01-07T04:37:24.896Z,0
2017-01-07T04:38:25.300Z,0
2017-01-07T04:39:24.892Z,0
2017-01-07T04:40:24.464Z,0
2017-01-07T04:41:24.041Z,0
2017-01-07T04:42:24.865Z,0
2017-01-07T04:43:25.269Z,0
2017-01-07T04:44:25.252Z,0
2017-01-07T04:45:25.265Z,0
2017-01-07T04:46:24.861Z,0
2017-01-07T04:47:24.838Z,0
2017-01-07T04:48:24.848Z,0
2017-01-07T04:49:24.414Z,0
2017-01-07T04:50:24.841Z,0
2017-01-07T04:51:24.814Z,0
2017-01-07T04:52:24.806Z,0
2017-01-07T04:53:25.222Z,0
2017-01-07T04:54:24.802Z,0
2017-01-07T04:55:24.810Z,0
2017-01-07T04:56:25.207Z,0
2017-01-07T04:57:25.198Z,0
2017-01-07T04:58:24.779Z,0
2017-01-07T04:59:24.771Z,0
2017-01-07T05:00:25.211Z,0
2017-01-07T05:01:24.351Z,0
2017-01-07T05:02:24.351Z,0
2017-01-07T05:03:24.759Z,0
2017-01-07T05:04:23.923Z,0
2017-01-07T05:05:24.743Z,0
2017-01-07T05:06:24.731Z,0
2017-01-07T05:07:24.348Z,0
2017-01-07T05:08:24.728Z,0
2017-01-07T05:09:25.148Z,0
2017-01-07T05:10:24.308Z,0
2017-01-07T05:11:24.716Z,0
2017-01-07T05:12:25.124Z,0
2017-01-07T05:13:24.292Z,0
2017-01-07T05:14:24.700Z,0
2017-01-07T05:15:24.296Z,0
2017-01-07T05:16:24.693Z,0
2017-01-07T05:17:23.868Z,0
2017-01-07T05:18:24.680Z,0
2017-01-07T05:19:24.253Z,0
2017-01-07T05:20:24.665Z,0
2017-01-07T05:21:24.253Z,0
2017-01-07T05:22:24.661Z,0
2017-01-07T05:23:24.649Z,0
2017-01-07T05:24:24.241Z,0
2017-01-07T05:25:24.649Z,0
2017-01-07T05:26:24.633Z,0
2017-01-07T05:27:25.045Z,0
2017-01-07T05:28:24.629Z,0
2017-01-07T05:29:24.621Z,0
2017-01-07T05:30:24.613Z,0
2017-01-07T05:31:24.605Z,0
2017-01-07T05:32:25.017Z,0
2017-01-07T05:33:24.589Z,0
2017-01-07T05:34:24.177Z,0
2017-01-07T05:35:24.589Z,0
2017-01-07T05:36:24.173Z,0
2017-01-07T05:37:24.170Z,0
2017-01-07T05:38:24.581Z,0
2017-01-07T05:39:23.746Z,0
2017-01-07T05:40:24.149Z,0
2017-01-07T05:41:24.170Z,0
2017-01-07T05:42:24.958Z,0
2017-01-07T05:43:23.726Z,0
2017-01-07T05:44:24.545Z,0
2017-01-07T05:45:24.529Z,0
2017-01-07T05:46:24.122Z,0
2017-01-07T05:47:24.118Z,0
2017-01-07T05:48:24.518Z,0
2017-01-07T05:49:24.507Z,0
2017-01-07T05:50:24.502Z,0
2017-01-07T05:51:24.506Z,0
2017-01-07T05:52:24.090Z,0
2017-01-07T05:53:24.078Z,0
2017-01-07T05:54:24.486Z,0
2017-01-07T05:55:24.906Z,0
2017-01-07T05:56:24.482Z,0
2017-01-07T05:57:24.471Z,0
2017-01-07T05:58:24.474Z,0
2017-01-07T05:59:24.882Z,0
2017-01-07T06:00:24.038Z,0
2017-01-07T06:01:24.454Z,0
2017-01-07T06:02:24.454Z,0
2017-01-07T06:03:24.439Z,0
2017-01-07T06:04:24.851Z,0
2017-01-07T06:05:23.606Z,0
2017-01-07T06:06:24.015Z,0
2017-01-07T06:07:24.423Z,0
2017-01-07T06:08:24.415Z,0
2017-01-07T06:09:24.407Z,0
2017-01-07T06:10:24.396Z,0
2017-01-07T06:11:24.391Z,0
2017-01-07T06:12:24.807Z,0
2017-01-07T06:13:23.975Z,0
2017-01-07T06:14:23.567Z,0
2017-01-07T06:15:24.388Z,0
2017-01-07T06:16:24.788Z,0
2017-01-07T06:17:24.380Z,0
2017-01-07T06:18:24.360Z,0
2017-01-07T06:19:23.948Z,0
2017-01-07T06:20:24.356Z,0
2017-01-07T06:21:24.760Z,0
2017-01-07T06:22:23.932Z,0
2017-01-07T06:23:23.924Z,0
2017-01-07T06:24:24.752Z,0
2017-01-07T06:25:23.504Z,0
2017-01-07T06:26:23.908Z,0
2017-01-07T06:27:23.484Z,0
2017-01-07T06:28:23.901Z,0
2017-01-07T06:29:24.309Z,0
2017-01-07T06:30:24.336Z,0
2017-01-07T06:31:24.297Z,0
2017-01-07T06:32:24.289Z,0
2017-01-07T06:33:24.697Z,0
2017-01-07T06:34:24.277Z,0
2017-01-07T06:35:23.865Z,0
2017-01-07T06:36:23.857Z,0
2017-01-07T06:37:24.677Z,0
2017-01-07T06:38:23.849Z,0
2017-01-07T06:39:23.849Z,0
2017-01-07T06:40:24.665Z,0
2017-01-07T06:41:24.657Z,0
2017-01-07T06:42:23.413Z,0
2017-01-07T06:43:24.241Z,0
2017-01-07T06:44:24.636Z,0
2017-01-07T06:45:23.813Z,0
2017-01-07T06:46:23.808Z,0
2017-01-07T06:47:24.209Z,0
2017-01-07T06:48:24.212Z,0
2017-01-07T06:49:24.620Z,0
2017-01-07T06:50:24.204Z,0
2017-01-07T06:51:24.188Z,0
2017-01-07T06:52:24.596Z,0
2017-01-07T06:53:23.508Z,0
2017-01-07T06:54:24.592Z,0
2017-01-07T06:55:24.180Z,0
2017-01-07T06:56:23.752Z,0
2017-01-07T06:57:24.168Z,0
2017-01-07T06:58:24.160Z,0
2017-01-07T06:59:24.152Z,0
2017-01-07T07:00:24.560Z,0
2017-01-07T07:01:24.561Z,0
2017-01-07T07:02:24.136Z,0
2017-01-07T07:03:24.536Z,0
2017-01-07T07:04:24.138Z,0
2017-01-07T07:05:24.536Z,0
2017-01-07T07:06:23.701Z,0
2017-01-07T07:07:24.121Z,0
2017-01-07T07:08:24.505Z,0
2017-01-07T07:09:24.104Z,0
2017-01-07T07:10:24.096Z,0
2017-01-07T07:11:24.097Z,0
2017-01-07T07:12:22.857Z,0
2017-01-07T07:13:24.081Z,0
2017-01-07T07:14:24.077Z,0
2017-01-07T07:15:24.077Z,0
2017-01-07T07:16:23.665Z,0
2017-01-07T07:17:24.077Z,0
2017-01-07T07:18:24.053Z,0
2017-01-07T07:19:23.669Z,0
2017-01-07T07:20:24.045Z,0
2017-01-07T07:21:24.041Z,0
2017-01-07T07:22:24.061Z,0
2017-01-07T07:23:24.449Z,0
2017-01-07T07:24:24.037Z,0
2017-01-07T07:25:23.605Z,5
2017-01-07T07:26:24.437Z,5
2017-01-07T07:27:23.597Z,5
2017-01-07T07:28:23.597Z,5
2017-01-07T07:29:23.997Z,5
2017-01-07T07:30:23.581Z,5
2017-01-07T07:31:23.985Z,5
2017-01-07T07:32:23.985Z,5
2017-01-07T07:33:23.569Z,5
2017-01-07T07:34:23.558Z,5
2017-01-07T07:35:23.557Z,5
2017-01-07T07:36:23.966Z,5
2017-01-07T07:37:23.958Z,5
2017-01-07T07:38:23.962Z,5
2017-01-07T07:39:24.382Z,5
2017-01-07T07:40:23.126Z,5
2017-01-07T07:41:23.122Z,5
2017-01-07T07:42:24.346Z,5
2017-01-07T07:43:24.346Z,10
2017-01-07T07:44:23.094Z,10
2017-01-07T07:45:22.687Z,10
2017-01-07T07:46:24.330Z,10
2017-01-07T07:47:24.326Z,10
2017-01-07T07:48:23.494Z,10
2017-01-07T07:49:23.898Z,10
2017-01-07T07:50:23.882Z,15
2017-01-07T07:51:24.290Z,15
2017-01-07T07:52:23.882Z,15
2017-01-07T07:53:23.054Z,15
2017-01-07T07:54:24.286Z,15
2017-01-07T07:55:23.870Z,10
2017-01-07T07:56:23.459Z,10
2017-01-07T07:57:23.854Z,10
2017-01-07T07:58:23.030Z,10
2017-01-07T07:59:23.855Z,10
2017-01-07T08:00:23.435Z,10
2017-01-07T08:01:23.423Z,10
2017-01-07T08:02:23.446Z,10
2017-01-07T08:03:23.835Z,10
2017-01-07T08:04:23.839Z,10
2017-01-07T08:05:24.239Z,10
2017-01-07T08:06:23.399Z,15
2017-01-07T08:07:23.398Z,15
2017-01-07T08:08:23.806Z,15
2017-01-07T08:09:24.211Z,15
2017-01-07T08:10:23.790Z,15
2017-01-07T08:11:23.790Z,15
2017-01-07T08:12:23.790Z,20
2017-01-07T08:13:24.194Z,20
2017-01-07T08:14:23.366Z,20
2017-01-07T08:15:23.770Z,20
2017-01-07T08:16:24.170Z,20
2017-01-07T08:17:24.166Z,20
2017-01-07T08:18:22.954Z,20
2017-01-07T08:19:24.162Z,20
2017-01-07T08:20:23.361Z,20
2017-01-07T08:21:24.154Z,20
2017-01-07T08:22:23.758Z,20
2017-01-07T08:23:24.138Z,20
2017-01-07T08:24:23.310Z,20
2017-01-07T08:25:23.722Z,20
2017-01-07T08:26:23.725Z,20
2017-01-07T08:27:23.714Z,20
2017-01-07T08:28:22.878Z,20
2017-01-07T08:29:22.874Z,25
2017-01-07T08:30:23.294Z,25
2017-01-07T08:31:24.101Z,25
2017-01-07T08:32:23.689Z,25
2017-01-07T08:33:24.097Z,25
2017-01-07T08:34:23.262Z,25
2017-01-07T08:35:23.673Z,25
2017-01-07T08:36:23.669Z,25
2017-01-07T08:37:24.077Z,25
2017-01-07T08:38:24.073Z,25
2017-01-07T08:39:23.653Z,25
2017-01-07T08:40:23.653Z,25
2017-01-07T08:41:23.645Z,25
2017-01-07T08:42:23.637Z,25
2017-01-07T08:43:23.641Z,25
2017-01-07T08:44:23.632Z,25
2017-01-07T08:45:23.620Z,25
2017-01-07T08:46:23.200Z,25
2017-01-07T08:47:22.788Z,25
2017-01-07T08:48:23.612Z,25
2017-01-07T08:49:23.192Z,25
2017-01-07T08:50:23.181Z,25
2017-01-07T08:51:35.904Z,25
2017-01-07T08:52:36.688Z,25
2017-01-07T08:53:23.948Z,25
2017-01-07T08:54:23.551Z,25
2017-01-07T08:55:23.972Z,25
2017-01-07T08:56:23.956Z,25
2017-01-07T08:57:23.554Z,25
2017-01-07T08:58:23.978Z,25
2017-01-07T08:59:23.150Z,25
2017-01-07T09:00:23.970Z,25
2017-01-07T09:01:23.538Z,25
2017-01-07T09:02:23.542Z,30
2017-01-07T09:03:23.118Z,30
2017-01-07T09:04:23.937Z,35
2017-01-07T09:05:22.702Z,35
2017-01-07T09:06:23.941Z,40
2017-01-07T09:07:23.509Z,45
2017-01-07T09:08:23.929Z,45
2017-01-07T09:09:23.094Z,45
2017-01-07T09:10:23.509Z,45
2017-01-07T09:11:22.673Z,45
2017-01-07T09:12:23.484Z,45
2017-01-07T09:13:23.900Z,45
2017-01-07T09:14:23.481Z,45
2017-01-07T09:15:23.064Z,45
2017-01-07T09:16:23.476Z,45
2017-01-07T09:17:23.464Z,45
2017-01-07T09:18:23.456Z,45
2017-01-07T09:19:23.784Z,45
2017-01-07T09:20:23.455Z,45
2017-01-07T09:21:23.860Z,50
2017-01-07T09:22:22.615Z,50
2017-01-07T09:23:23.431Z,55
2017-01-07T09:24:24.095Z,55
2017-01-07T09:25:23.845Z,55
2017-01-07T09:26:23.015Z,55
2017-01-07T09:27:23.411Z,55
2017-01-07T09:28:22.599Z,55
2017-01-07T09:29:23.406Z,55
2017-01-07T09:30:23.398Z,55
2017-01-07T09:31:23.395Z,55
2017-01-07T09:32:23.390Z,55
2017-01-07T09:33:22.598Z,60
2017-01-07T09:34:23.798Z,65
2017-01-07T09:35:23.530Z,70
2017-01-07T09:36:22.966Z,75
2017-01-07T09:37:23.362Z,90
2017-01-07T09:38:23.786Z,90
2017-01-07T09:39:22.954Z,85
2017-01-07T09:40:23.774Z,90
2017-01-07T09:41:23.362Z,80
2017-01-07T09:42:23.345Z,70
2017-01-07T09:43:23.350Z,70
2017-01-07T09:44:22.930Z,70
2017-01-07T09:45:23.339Z,65
2017-01-07T09:46:23.334Z,65
2017-01-07T09:47:22.914Z,65
2017-01-07T09:48:23.733Z,65
2017-01-07T09:49:23.733Z,65
2017-01-07T09:50:23.722Z,65
2017-01-07T09:51:23.726Z,65
2017-01-07T09:52:23.306Z,65
2017-01-07T09:53:23.310Z,65
2017-01-07T09:54:23.318Z,60
2017-01-07T09:55:23.290Z,60
2017-01-07T09:56:23.290Z,55
2017-01-07T09:57:23.282Z,55
2017-01-07T09:58:23.310Z,55
2017-01-07T09:59:22.866Z,55
2017-01-07T10:00:22.858Z,60
2017-01-07T10:01:22.853Z,60
2017-01-07T10:02:22.850Z,70
2017-01-07T10:03:22.438Z,75
2017-01-07T10:04:22.846Z,85
2017-01-07T10:05:22.846Z,80
2017-01-07T10:06:23.666Z,75
2017-01-07T10:07:23.650Z,70
2017-01-07T10:08:23.238Z,70
2017-01-07T10:09:22.842Z,75
2017-01-07T10:10:22.832Z,75
2017-01-07T10:11:23.637Z,75
2017-01-07T10:12:23.226Z,70
2017-01-07T10:13:23.629Z,70
2017-01-07T10:14:23.214Z,70
2017-01-07T10:15:23.213Z,70
2017-01-07T10:16:22.786Z,65
2017-01-07T10:17:23.202Z,65
2017-01-07T10:18:23.609Z,70
2017-01-07T10:19:23.605Z,70
2017-01-07T10:20:22.765Z,70
2017-01-07T10:21:23.178Z,70
2017-01-07T10:22:23.613Z,70
2017-01-07T10:23:23.169Z,70
2017-01-07T10:24:23.585Z,75
2017-01-07T10:25:23.162Z,75
2017-01-07T10:26:22.753Z,75
2017-01-07T10:27:23.578Z,75
2017-01-07T10:28:22.734Z,80
2017-01-07T10:29:22.745Z,85
2017-01-07T10:30:22.742Z,90
2017-01-07T10:31:23.553Z,90
2017-01-07T10:32:23.545Z,90
2017-01-07T10:33:23.141Z,85
2017-01-07T10:34:22.724Z,80
2017-01-07T10:35:23.545Z,75
2017-01-07T10:36:23.117Z,70
2017-01-07T10:37:23.121Z,70
2017-01-07T10:38:23.114Z,65
2017-01-07T10:39:23.113Z,65
2017-01-07T10:40:23.118Z,70
2017-01-07T10:41:23.521Z,75
2017-01-07T10:42:23.514Z,80
2017-01-07T10:43:21.862Z,85
2017-01-07T10:44:23.098Z,85
2017-01-07T10:45:22.266Z,85
2017-01-07T10:46:23.498Z,85
2017-01-07T10:47:22.674Z,85
2017-01-07T10:48:23.083Z,80
2017-01-07T10:49:22.671Z,85
2017-01-07T10:50:23.083Z,85
2017-01-07T10:51:23.067Z,85
2017-01-07T10:52:23.067Z,85
2017-01-07T10:53:23.063Z,85
2017-01-07T10:54:23.471Z,90
2017-01-07T10:55:23.456Z,90
2017-01-07T10:56:23.044Z,90
2017-01-07T10:57:22.632Z,90
2017-01-07T10:58:23.448Z,85
2017-01-07T10:59:23.453Z,85
2017-01-07T11:00:23.044Z,85
2017-01-07T11:01:23.449Z,85
2017-01-07T11:02:22.612Z,85
2017-01-07T11:03:22.613Z,80
2017-01-07T11:04:23.433Z,75
2017-01-07T11:05:23.429Z,75
2017-01-07T11:06:23.009Z,75
2017-01-07T11:07:23.421Z,75
2017-01-07T11:08:23.414Z,75
2017-01-07T11:09:23.006Z,75
2017-01-07T11:10:23.002Z,75
2017-01-07T11:11:23.002Z,75
2017-01-07T11:12:21.762Z,80
2017-01-07T11:13:22.994Z,80
2017-01-07T11:14:22.574Z,85
2017-01-07T11:15:22.982Z,85
2017-01-07T11:16:22.979Z,90
2017-01-07T11:17:23.395Z,85
2017-01-07T11:18:22.975Z,85
2017-01-07T11:19:22.975Z,85
2017-01-07T11:20:23.382Z,85
2017-01-07T11:21:23.371Z,85
2017-01-07T11:22:22.551Z,85
2017-01-07T11:23:22.555Z,85
2017-01-07T11:24:22.952Z,85
2017-01-07T11:25:22.543Z,85
2017-01-07T11:26:22.952Z,85
2017-01-07T11:27:22.948Z,85
2017-01-07T11:28:23.360Z,85
2017-01-07T11:29:22.529Z,85
2017-01-07T11:30:23.352Z,85
2017-01-07T11:31:22.928Z,90
2017-01-07T11:32:22.516Z,90
2017-01-07T11:33:22.504Z,90
2017-01-07T11:34:23.333Z,90
2017-01-07T11:35:22.913Z,90
2017-01-07T11:36:22.917Z,90
2017-01-07T11:37:22.501Z,90
2017-01-07T11:38:22.497Z,95
2017-01-07T11:39:22.905Z,95
2017-01-07T11:40:22.901Z,95
2017-01-07T11:41:23.306Z,95
2017-01-07T11:42:22.885Z,95
2017-01-07T11:43:23.310Z,95
2017-01-07T11:44:22.878Z,90
2017-01-07T11:45:22.470Z,90
2017-01-07T11:46:22.882Z,90
2017-01-07T11:47:22.898Z,85
2017-01-07T11:48:22.874Z,85
2017-01-07T11:49:22.862Z,85
2017-01-07T11:50:22.870Z,85
2017-01-07T11:51:23.278Z,85
2017-01-07T11:52:22.850Z,90
2017-01-07T11:53:22.443Z,90
2017-01-07T11:54:22.855Z,90
2017-01-07T11:55:22.271Z,90
2017-01-07T11:56:23.260Z,90
2017-01-07T11:57:22.027Z,90
2017-01-07T11:58:22.835Z,95
2017-01-07T11:59:22.839Z,95
2017-01-07T12:00:22.860Z,95
2017-01-07T12:01:22.832Z,95
2017-01-07T12:02:22.819Z,100
2017-01-07T12:03:22.416Z,95
2017-01-07T12:04:22.820Z,95
2017-01-07T12:05:22.834Z,95
2017-01-07T12:06:22.808Z,95
2017-01-07T12:07:22.816Z,95
2017-01-07T12:08:23.221Z,95
2017-01-07T12:09:22.805Z,95
2017-01-07T12:10:21.989Z,95
2017-01-07T12:11:22.389Z,95
2017-01-07T12:12:23.221Z,95
2017-01-07T12:13:22.794Z,95
2017-01-07T12:14:22.378Z,95
2017-01-07T12:15:22.382Z,95
2017-01-07T12:16:22.378Z,95
2017-01-07T12:17:23.190Z,95
2017-01-07T12:18:23.230Z,95
2017-01-07T12:19:23.186Z,90
2017-01-07T12:20:23.183Z,90
2017-01-07T12:21:22.359Z,90
2017-01-07T12:22:23.211Z,90
2017-01-07T12:23:22.775Z,90
2017-01-07T12:24:23.181Z,90
2017-01-07T12:25:22.343Z,95
2017-01-07T12:26:22.760Z,95
2017-01-07T12:27:22.751Z,95
2017-01-07T12:28:23.160Z,95
2017-01-07T12:29:21.927Z,95
2017-01-07T12:30:23.176Z,95
2017-01-07T12:31:22.768Z,95
2017-01-07T12:32:22.328Z,95
2017-01-07T12:33:22.320Z,95
2017-01-07T12:34:22.728Z,90
2017-01-07T12:35:23.176Z,90
2017-01-07T12:36:22.724Z,85
2017-01-07T12:37:22.720Z,85
2017-01-07T12:38:22.721Z,85
2017-01-07T12:39:22.313Z,85
2017-01-07T12:40:22.305Z,85
2017-01-07T12:41:22.729Z,85
2017-01-07T12:42:22.713Z,85
2017-01-07T12:43:22.701Z,80
2017-01-07T12:44:22.293Z,80
2017-01-07T12:45:23.137Z,80
2017-01-07T12:46:22.697Z,75
2017-01-07T12:47:21.873Z,70
2017-01-07T12:48:22.294Z,70
2017-01-07T12:49:22.681Z,70
2017-01-07T12:50:22.686Z,70
2017-01-07T12:51:22.686Z,70
2017-01-07T12:52:22.670Z,75
2017-01-07T12:53:23.090Z,75
2017-01-07T12:54:22.267Z,75
2017-01-07T12:55:23.070Z,75
2017-01-07T12:56:23.078Z,75
2017-01-07T12:57:22.666Z,80
2017-01-07T12:58:23.075Z,80
2017-01-07T12:59:22.655Z,75
2017-01-07T13:00:22.651Z,80
2017-01-07T13:01:22.263Z,80
2017-01-07T13:02:22.651Z,80
2017-01-07T13:03:23.047Z,80
2017-01-07T13:04:22.649Z,80
2017-01-07T13:05:22.231Z,75
2017-01-07T13:06:22.231Z,75
2017-01-07T13:07:23.047Z,75
2017-01-07T13:08:22.628Z,75
2017-01-07T13:09:23.044Z,75
2017-01-07T13:10:22.625Z,75
2017-01-07T13:11:22.627Z,70
2017-01-07T13:12:22.616Z,70
2017-01-07T13:13:22.212Z,70
2017-01-07T13:14:23.024Z,70
2017-01-07T13:15:23.030Z,75
2017-01-07T13:16:23.021Z,75
2017-01-07T13:17:22.610Z,75
2017-01-07T13:18:23.017Z,75
2017-01-07T13:19:22.185Z,75
2017-01-07T13:20:22.601Z,75
2017-01-07T13:21:23.012Z,75
2017-01-07T13:22:21.805Z,75
2017-01-07T13:23:23.021Z,75
2017-01-07T13:24:22.181Z,75
2017-01-07T13:25:22.585Z,75
2017-01-07T13:26:21.769Z,75
2017-01-07T13:27:22.610Z,75
2017-01-07T13:28:22.169Z,70
2017-01-07T13:29:22.573Z,70
2017-01-07T13:30:22.166Z,70
2017-01-07T13:31:22.574Z,70
2017-01-07T13:32:22.981Z,70
2017-01-07T13:33:22.578Z,70
2017-01-07T13:34:22.570Z,70
2017-01-07T13:35:22.972Z,70
2017-01-07T13:36:22.554Z,70
2017-01-07T13:37:22.551Z,70
2017-01-07T13:38:22.966Z,70
2017-01-07T13:39:22.546Z,70
2017-01-07T13:40:22.546Z,70
2017-01-07T13:41:22.955Z,70
2017-01-07T13:42:22.130Z,65
2017-01-07T13:43:22.530Z,65
2017-01-07T13:44:22.519Z,65
2017-01-07T13:45:22.128Z,65
2017-01-07T13:46:22.939Z,65
2017-01-07T13:47:22.519Z,65
2017-01-07T13:48:22.519Z,65
2017-01-07T13:49:22.523Z,65
2017-01-07T13:50:22.503Z,60
2017-01-07T13:51:22.923Z,55
2017-01-07T13:52:22.919Z,55
2017-01-07T13:53:22.915Z,50
2017-01-07T13:54:22.507Z,50
2017-01-07T13:55:22.084Z,55
2017-01-07T13:56:22.492Z,55
2017-01-07T13:57:22.500Z,55
2017-01-07T13:58:22.496Z,55
2017-01-07T13:59:22.492Z,50
2017-01-07T14:00:22.636Z,50
2017-01-07T14:01:22.476Z,50
2017-01-07T14:02:22.476Z,45
2017-01-07T14:03:22.484Z,45
2017-01-07T14:04:21.657Z,45
2017-01-07T14:05:22.064Z,45
2017-01-07T14:06:22.064Z,45
2017-01-07T14:07:22.065Z,45
2017-01-07T14:08:21.633Z,45
2017-01-07T14:09:22.872Z,40
2017-01-07T14:10:22.044Z,40
2017-01-07T14:11:22.453Z,40
2017-01-07T14:12:22.861Z,40
2017-01-07T14:13:22.449Z,40
2017-01-07T14:14:22.033Z,40
2017-01-07T14:15:22.853Z,35
2017-01-07T14:16:22.445Z,35
2017-01-07T14:17:22.025Z,35
2017-01-07T14:18:22.453Z,35
2017-01-07T14:19:22.434Z,35
2017-01-07T14:20:22.993Z,35
2017-01-07T14:21:22.417Z,35
2017-01-07T14:22:22.017Z,35
2017-01-07T14:23:22.417Z,35
2017-01-07T14:24:22.414Z,35
2017-01-07T14:25:22.418Z,35
2017-01-07T14:26:21.995Z,35
2017-01-07T14:27:22.818Z,35
2017-01-07T14:28:21.998Z,30
2017-01-07T14:29:22.406Z,30
2017-01-07T14:30:22.394Z,30
2017-01-07T14:31:22.394Z,30
2017-01-07T14:32:22.802Z,30